sensor_id;sensor_type;location;lat;lon;timestamp;P1;durP1;ratioP1;P2;durP2;ratioP2
1416;SDS011;703;51.162;13.574;2024-02-26T00:00:18;14.90;;;13.23;;
1416;SDS011;703;51.162;13.574;2024-02-26T00:02:44;12.70;;;11.60;;
1416;SDS011;703;51.162;13.574;2024-02-26T00:05:10;14.43;;;13.03;;
1416;SDS011;703;51.162;13.574;2024-02-26T00:07:36;14.00;;;12.70;;
1416;SDS011;703;51.162;13.574;2024-02-26T00:10:02;16.97;;;13.67;;
1416;SDS011;703;51.162;13.574;2024-02-26T00:12:28;19.93;;;15.13;;
1416;SDS011;703;51.162;13.574;2024-02-26T00:14:54;13.90;;;12.50;;
1416;SDS011;703;51.162;13.574;2024-02-26T00:17:22;13.27;;;12.33;;
1416;SDS011;703;51.162;13.574;2024-02-26T00:19:49;13.33;;;12.10;;
1416;SDS011;703;51.162;13.574;2024-02-26T00:22:15;17.20;;;15.53;;
1416;SDS011;703;51.162;13.574;2024-02-26T00:24:41;18.90;;;13.47;;
1416;SDS011;703;51.162;13.574;2024-02-26T00:27:07;19.77;;;17.87;;
1416;SDS011;703;51.162;13.574;2024-02-26T00:29:33;13.73;;;12.47;;
1416;SDS011;703;51.162;13.574;2024-02-26T00:31:58;14.17;;;13.03;;
1416;SDS011;703;51.162;13.574;2024-02-26T00:34:24;14.57;;;13.17;;
1416;SDS011;703;51.162;13.574;2024-02-26T00:36:50;13.73;;;12.37;;
1416;SDS011;703;51.162;13.574;2024-02-26T00:39:16;17.83;;;12.40;;
1416;SDS011;703;51.162;13.574;2024-02-26T00:41:42;14.60;;;13.60;;
1416;SDS011;703;51.162;13.574;2024-02-26T00:44:08;12.77;;;11.57;;
1416;SDS011;703;51.162;13.574;2024-02-26T00:46:34;12.90;;;11.73;;
1416;SDS011;703;51.162;13.574;2024-02-26T00:49:00;13.07;;;11.83;;
1416;SDS011;703;51.162;13.574;2024-02-26T00:51:26;29.27;;;15.10;;
1416;SDS011;703;51.162;13.574;2024-02-26T00:53:53;14.03;;;12.50;;
1416;SDS011;703;51.162;13.574;2024-02-26T00:56:20;12.43;;;11.30;;
1416;SDS011;703;51.162;13.574;2024-02-26T00:58:46;18.70;;;12.47;;
1416;SDS011;703;51.162;13.574;2024-02-26T01:01:12;21.27;;;13.37;;
1416;SDS011;703;51.162;13.574;2024-02-26T01:03:38;13.63;;;12.30;;
1416;SDS011;703;51.162;13.574;2024-02-26T01:06:04;16.10;;;14.43;;
1416;SDS011;703;51.162;13.574;2024-02-26T01:08:30;14.70;;;13.43;;
1416;SDS011;703;51.162;13.574;2024-02-26T01:10:56;19.37;;;16.17;;
1416;SDS011;703;51.162;13.574;2024-02-26T01:13:22;13.23;;;11.97;;
1416;SDS011;703;51.162;13.574;2024-02-26T01:15:48;12.77;;;11.37;;
1416;SDS011;703;51.162;13.574;2024-02-26T01:18:14;15.20;;;14.07;;
1416;SDS011;703;51.162;13.574;2024-02-26T01:20:40;18.70;;;16.80;;
1416;SDS011;703;51.162;13.574;2024-02-26T01:23:06;15.50;;;13.83;;
1416;SDS011;703;51.162;13.574;2024-02-26T01:25:32;14.23;;;13.10;;
1416;SDS011;703;51.162;13.574;2024-02-26T01:27:58;18.93;;;14.70;;
1416;SDS011;703;51.162;13.574;2024-02-26T01:30:23;18.50;;;16.33;;
1416;SDS011;703;51.162;13.574;2024-02-26T01:32:49;19.23;;;17.57;;
1416;SDS011;703;51.162;13.574;2024-02-26T01:35:15;19.83;;;17.17;;
1416;SDS011;703;51.162;13.574;2024-02-26T01:37:41;18.57;;;16.87;;
1416;SDS011;703;51.162;13.574;2024-02-26T01:40:08;14.77;;;13.43;;
1416;SDS011;703;51.162;13.574;2024-02-26T01:42:34;15.17;;;13.67;;
1416;SDS011;703;51.162;13.574;2024-02-26T01:45:00;16.77;;;14.67;;
1416;SDS011;703;51.162;13.574;2024-02-26T01:47:27;27.97;;;18.83;;
1416;SDS011;703;51.162;13.574;2024-02-26T01:49:53;18.77;;;14.93;;
1416;SDS011;703;51.162;13.574;2024-02-26T01:52:19;17.93;;;15.00;;
1416;SDS011;703;51.162;13.574;2024-02-26T01:54:46;16.93;;;15.60;;
1416;SDS011;703;51.162;13.574;2024-02-26T01:57:12;14.80;;;13.27;;
1416;SDS011;703;51.162;13.574;2024-02-26T01:59:39;15.07;;;13.87;;
1416;SDS011;703;51.162;13.574;2024-02-26T02:02:06;24.67;;;15.27;;
1416;SDS011;703;51.162;13.574;2024-02-26T02:04:34;16.77;;;15.37;;
1416;SDS011;703;51.162;13.574;2024-02-26T02:07:00;27.33;;;15.57;;
1416;SDS011;703;51.162;13.574;2024-02-26T02:09:27;21.90;;;16.50;;
1416;SDS011;703;51.162;13.574;2024-02-26T02:11:53;17.40;;;16.07;;
1416;SDS011;703;51.162;13.574;2024-02-26T02:14:20;15.77;;;14.43;;
1416;SDS011;703;51.162;13.574;2024-02-26T02:16:46;17.20;;;15.77;;
1416;SDS011;703;51.162;13.574;2024-02-26T02:19:13;16.93;;;15.73;;
1416;SDS011;703;51.162;13.574;2024-02-26T02:21:39;19.30;;;17.40;;
1416;SDS011;703;51.162;13.574;2024-02-26T02:24:04;15.57;;;14.27;;
1416;SDS011;703;51.162;13.574;2024-02-26T02:26:30;16.67;;;13.50;;
1416;SDS011;703;51.162;13.574;2024-02-26T02:28:56;23.73;;;18.93;;
1416;SDS011;703;51.162;13.574;2024-02-26T02:31:22;19.17;;;13.90;;
1416;SDS011;703;51.162;13.574;2024-02-26T02:33:48;15.67;;;14.60;;
1416;SDS011;703;51.162;13.574;2024-02-26T02:36:14;25.50;;;15.23;;
1416;SDS011;703;51.162;13.574;2024-02-26T02:38:58;16.63;;;15.33;;
1416;SDS011;703;51.162;13.574;2024-02-26T02:41:24;16.77;;;14.27;;
1416;SDS011;703;51.162;13.574;2024-02-26T02:43:52;14.57;;;13.40;;
1416;SDS011;703;51.162;13.574;2024-02-26T02:46:18;17.07;;;15.80;;
1416;SDS011;703;51.162;13.574;2024-02-26T02:48:44;15.37;;;13.97;;
1416;SDS011;703;51.162;13.574;2024-02-26T02:51:10;14.70;;;13.37;;
1416;SDS011;703;51.162;13.574;2024-02-26T02:53:36;13.17;;;12.03;;
1416;SDS011;703;51.162;13.574;2024-02-26T02:56:02;15.77;;;13.50;;
1416;SDS011;703;51.162;13.574;2024-02-26T02:58:28;15.10;;;13.23;;
1416;SDS011;703;51.162;13.574;2024-02-26T03:00:54;16.57;;;15.20;;
1416;SDS011;703;51.162;13.574;2024-02-26T03:03:20;14.27;;;13.10;;
1416;SDS011;703;51.162;13.574;2024-02-26T03:05:49;32.43;;;14.90;;
1416;SDS011;703;51.162;13.574;2024-02-26T03:08:15;14.60;;;13.23;;
1416;SDS011;703;51.162;13.574;2024-02-26T03:10:40;15.03;;;12.60;;
1416;SDS011;703;51.162;13.574;2024-02-26T03:13:08;17.33;;;14.43;;
1416;SDS011;703;51.162;13.574;2024-02-26T03:15:35;16.47;;;14.87;;
1416;SDS011;703;51.162;13.574;2024-02-26T03:18:01;21.63;;;14.23;;
1416;SDS011;703;51.162;13.574;2024-02-26T03:20:27;15.93;;;12.90;;
1416;SDS011;703;51.162;13.574;2024-02-26T03:22:53;14.60;;;12.90;;
1416;SDS011;703;51.162;13.574;2024-02-26T03:25:19;19.73;;;13.40;;
1416;SDS011;703;51.162;13.574;2024-02-26T03:27:45;14.10;;;12.83;;
1416;SDS011;703;51.162;13.574;2024-02-26T03:30:11;13.47;;;12.37;;
1416;SDS011;703;51.162;13.574;2024-02-26T03:32:37;16.47;;;13.10;;
1416;SDS011;703;51.162;13.574;2024-02-26T03:35:03;16.33;;;13.33;;
1416;SDS011;703;51.162;13.574;2024-02-26T03:37:29;15.93;;;14.40;;
1416;SDS011;703;51.162;13.574;2024-02-26T03:39:55;16.00;;;14.53;;
1416;SDS011;703;51.162;13.574;2024-02-26T03:42:22;17.00;;;15.50;;
1416;SDS011;703;51.162;13.574;2024-02-26T03:44:48;12.37;;;11.40;;
1416;SDS011;703;51.162;13.574;2024-02-26T03:47:13;16.50;;;14.53;;
1416;SDS011;703;51.162;13.574;2024-02-26T03:49:39;16.17;;;14.50;;
1416;SDS011;703;51.162;13.574;2024-02-26T03:52:05;16.80;;;15.60;;
1416;SDS011;703;51.162;13.574;2024-02-26T03:54:31;15.70;;;13.87;;
1416;SDS011;703;51.162;13.574;2024-02-26T03:56:57;21.17;;;16.57;;
1416;SDS011;703;51.162;13.574;2024-02-26T03:59:23;15.50;;;14.17;;
1416;SDS011;703;51.162;13.574;2024-02-26T04:01:50;26.03;;;17.87;;
1416;SDS011;703;51.162;13.574;2024-02-26T04:04:16;13.03;;;11.73;;
1416;SDS011;703;51.162;13.574;2024-02-26T04:06:45;12.63;;;11.53;;
1416;SDS011;703;51.162;13.574;2024-02-26T04:09:13;26.70;;;13.00;;
1416;SDS011;703;51.162;13.574;2024-02-26T04:11:39;17.60;;;16.00;;
1416;SDS011;703;51.162;13.574;2024-02-26T04:14:05;15.87;;;14.33;;
1416;SDS011;703;51.162;13.574;2024-02-26T04:16:33;17.00;;;12.17;;
1416;SDS011;703;51.162;13.574;2024-02-26T04:19:00;15.43;;;13.23;;
1416;SDS011;703;51.162;13.574;2024-02-26T04:21:26;12.93;;;11.80;;
1416;SDS011;703;51.162;13.574;2024-02-26T04:23:52;13.37;;;12.27;;
1416;SDS011;703;51.162;13.574;2024-02-26T04:26:20;14.53;;;13.27;;
1416;SDS011;703;51.162;13.574;2024-02-26T04:28:46;14.87;;;13.67;;
1416;SDS011;703;51.162;13.574;2024-02-26T04:31:12;16.13;;;12.40;;
1416;SDS011;703;51.162;13.574;2024-02-26T04:33:38;15.40;;;13.93;;
1416;SDS011;703;51.162;13.574;2024-02-26T04:36:04;14.93;;;13.50;;
1416;SDS011;703;51.162;13.574;2024-02-26T04:38:30;14.43;;;13.47;;
1416;SDS011;703;51.162;13.574;2024-02-26T04:40:56;13.80;;;12.27;;
1416;SDS011;703;51.162;13.574;2024-02-26T04:43:22;19.77;;;13.13;;
1416;SDS011;703;51.162;13.574;2024-02-26T04:45:48;15.13;;;13.03;;
1416;SDS011;703;51.162;13.574;2024-02-26T04:48:14;12.83;;;12.03;;
1416;SDS011;703;51.162;13.574;2024-02-26T04:50:40;15.73;;;14.10;;
1416;SDS011;703;51.162;13.574;2024-02-26T04:53:06;16.23;;;14.47;;
1416;SDS011;703;51.162;13.574;2024-02-26T04:55:33;16.30;;;14.90;;
1416;SDS011;703;51.162;13.574;2024-02-26T04:57:59;15.03;;;13.60;;
1416;SDS011;703;51.162;13.574;2024-02-26T05:00:24;13.87;;;12.47;;
1416;SDS011;703;51.162;13.574;2024-02-26T05:02:50;16.87;;;15.13;;
1416;SDS011;703;51.162;13.574;2024-02-26T05:05:16;13.33;;;11.67;;
1416;SDS011;703;51.162;13.574;2024-02-26T05:07:43;22.47;;;16.63;;
1416;SDS011;703;51.162;13.574;2024-02-26T05:10:10;18.50;;;15.67;;
1416;SDS011;703;51.162;13.574;2024-02-26T05:12:36;14.17;;;13.10;;
1416;SDS011;703;51.162;13.574;2024-02-26T05:15:02;18.93;;;14.17;;
1416;SDS011;703;51.162;13.574;2024-02-26T05:17:28;16.27;;;12.10;;
1416;SDS011;703;51.162;13.574;2024-02-26T05:19:54;12.03;;;11.13;;
1416;SDS011;703;51.162;13.574;2024-02-26T05:22:20;15.67;;;14.23;;
1416;SDS011;703;51.162;13.574;2024-02-26T05:24:46;15.60;;;14.40;;
1416;SDS011;703;51.162;13.574;2024-02-26T05:27:12;14.00;;;12.90;;
1416;SDS011;703;51.162;13.574;2024-02-26T05:29:38;31.33;;;16.53;;
1416;SDS011;703;51.162;13.574;2024-02-26T05:32:04;18.70;;;13.03;;
1416;SDS011;703;51.162;13.574;2024-02-26T05:34:30;18.20;;;14.60;;
1416;SDS011;703;51.162;13.574;2024-02-26T05:36:57;12.20;;;11.27;;
1416;SDS011;703;51.162;13.574;2024-02-26T05:39:23;16.67;;;14.97;;
1416;SDS011;703;51.162;13.574;2024-02-26T05:41:49;14.83;;;13.50;;
1416;SDS011;703;51.162;13.574;2024-02-26T05:44:14;14.50;;;12.10;;
1416;SDS011;703;51.162;13.574;2024-02-26T05:46:41;16.87;;;15.47;;
1416;SDS011;703;51.162;13.574;2024-02-26T05:49:07;19.50;;;14.97;;
1416;SDS011;703;51.162;13.574;2024-02-26T05:51:33;19.23;;;13.97;;
1416;SDS011;703;51.162;13.574;2024-02-26T05:53:59;20.70;;;18.73;;
1416;SDS011;703;51.162;13.574;2024-02-26T05:56:25;18.90;;;13.80;;
1416;SDS011;703;51.162;13.574;2024-02-26T05:58:51;18.40;;;13.80;;
1416;SDS011;703;51.162;13.574;2024-02-26T06:01:17;19.17;;;17.67;;
1416;SDS011;703;51.162;13.574;2024-02-26T06:03:44;16.63;;;15.27;;
1416;SDS011;703;51.162;13.574;2024-02-26T06:06:10;17.13;;;15.33;;
1416;SDS011;703;51.162;13.574;2024-02-26T06:08:36;18.47;;;16.97;;
1416;SDS011;703;51.162;13.574;2024-02-26T06:11:08;18.87;;;16.57;;
1416;SDS011;703;51.162;13.574;2024-02-26T06:13:34;20.67;;;18.77;;
1416;SDS011;703;51.162;13.574;2024-02-26T06:16:00;22.10;;;20.07;;
1416;SDS011;703;51.162;13.574;2024-02-26T06:18:27;24.80;;;18.23;;
1416;SDS011;703;51.162;13.574;2024-02-26T06:20:53;21.57;;;19.63;;
1416;SDS011;703;51.162;13.574;2024-02-26T06:23:19;16.63;;;14.93;;
1416;SDS011;703;51.162;13.574;2024-02-26T06:25:45;14.17;;;13.07;;
1416;SDS011;703;51.162;13.574;2024-02-26T06:28:12;20.57;;;18.77;;
1416;SDS011;703;51.162;13.574;2024-02-26T06:30:38;31.70;;;19.40;;
1416;SDS011;703;51.162;13.574;2024-02-26T06:33:04;21.57;;;19.70;;
1416;SDS011;703;51.162;13.574;2024-02-26T06:35:31;24.27;;;18.50;;
1416;SDS011;703;51.162;13.574;2024-02-26T06:37:57;26.70;;;24.10;;
1416;SDS011;703;51.162;13.574;2024-02-26T06:40:23;19.57;;;18.17;;
1416;SDS011;703;51.162;13.574;2024-02-26T06:42:50;18.57;;;17.10;;
1416;SDS011;703;51.162;13.574;2024-02-26T06:45:16;19.67;;;16.50;;
1416;SDS011;703;51.162;13.574;2024-02-26T06:47:42;17.90;;;16.10;;
1416;SDS011;703;51.162;13.574;2024-02-26T06:50:08;18.90;;;16.73;;
1416;SDS011;703;51.162;13.574;2024-02-26T06:52:34;20.23;;;16.87;;
1416;SDS011;703;51.162;13.574;2024-02-26T06:55:00;18.20;;;16.90;;
1416;SDS011;703;51.162;13.574;2024-02-26T06:57:26;19.23;;;17.50;;
1416;SDS011;703;51.162;13.574;2024-02-26T06:59:52;16.00;;;15.00;;
1416;SDS011;703;51.162;13.574;2024-02-26T07:02:18;15.30;;;13.73;;
1416;SDS011;703;51.162;13.574;2024-02-26T07:04:44;17.53;;;16.03;;
1416;SDS011;703;51.162;13.574;2024-02-26T07:07:10;16.07;;;13.63;;
1416;SDS011;703;51.162;13.574;2024-02-26T07:09:36;11.83;;;10.50;;
1416;SDS011;703;51.162;13.574;2024-02-26T07:12:01;13.83;;;12.43;;
1416;SDS011;703;51.162;13.574;2024-02-26T07:14:28;13.93;;;12.63;;
1416;SDS011;703;51.162;13.574;2024-02-26T07:16:54;17.27;;;15.50;;
1416;SDS011;703;51.162;13.574;2024-02-26T07:19:19;15.57;;;14.07;;
1416;SDS011;703;51.162;13.574;2024-02-26T07:21:45;16.90;;;14.90;;
1416;SDS011;703;51.162;13.574;2024-02-26T07:24:11;16.00;;;14.70;;
1416;SDS011;703;51.162;13.574;2024-02-26T07:26:37;21.73;;;19.40;;
1416;SDS011;703;51.162;13.574;2024-02-26T07:29:03;19.77;;;18.00;;
1416;SDS011;703;51.162;13.574;2024-02-26T07:31:30;21.07;;;18.87;;
1416;SDS011;703;51.162;13.574;2024-02-26T07:33:56;21.87;;;19.63;;
1416;SDS011;703;51.162;13.574;2024-02-26T07:36:22;24.00;;;19.93;;
1416;SDS011;703;51.162;13.574;2024-02-26T07:38:47;24.03;;;18.10;;
1416;SDS011;703;51.162;13.574;2024-02-26T07:41:13;18.63;;;16.40;;
1416;SDS011;703;51.162;13.574;2024-02-26T07:43:39;27.53;;;18.90;;
1416;SDS011;703;51.162;13.574;2024-02-26T07:46:06;19.40;;;17.60;;
1416;SDS011;703;51.162;13.574;2024-02-26T07:48:32;23.93;;;19.03;;
1416;SDS011;703;51.162;13.574;2024-02-26T07:50:58;19.37;;;17.40;;
1416;SDS011;703;51.162;13.574;2024-02-26T07:53:25;20.90;;;18.30;;
1416;SDS011;703;51.162;13.574;2024-02-26T07:55:51;17.27;;;15.53;;
1416;SDS011;703;51.162;13.574;2024-02-26T07:58:17;13.40;;;11.27;;
1416;SDS011;703;51.162;13.574;2024-02-26T08:00:42;15.23;;;10.83;;
1416;SDS011;703;51.162;13.574;2024-02-26T08:03:08;10.10;;;9.30;;
1416;SDS011;703;51.162;13.574;2024-02-26T08:05:34;11.07;;;9.97;;
1416;SDS011;703;51.162;13.574;2024-02-26T08:08:01;11.77;;;9.43;;
1416;SDS011;703;51.162;13.574;2024-02-26T08:10:27;10.27;;;9.37;;
1416;SDS011;703;51.162;13.574;2024-02-26T08:12:53;12.13;;;9.37;;
1416;SDS011;703;51.162;13.574;2024-02-26T08:15:19;11.87;;;10.63;;
1416;SDS011;703;51.162;13.574;2024-02-26T08:17:44;23.30;;;15.77;;
1416;SDS011;703;51.162;13.574;2024-02-26T08:20:12;20.27;;;16.87;;
1416;SDS011;703;51.162;13.574;2024-02-26T08:22:38;18.70;;;16.90;;
1416;SDS011;703;51.162;13.574;2024-02-26T08:25:04;26.40;;;18.23;;
1416;SDS011;703;51.162;13.574;2024-02-26T08:27:31;26.27;;;18.20;;
1416;SDS011;703;51.162;13.574;2024-02-26T08:29:58;21.47;;;19.17;;
1416;SDS011;703;51.162;13.574;2024-02-26T08:32:24;21.40;;;19.17;;
1416;SDS011;703;51.162;13.574;2024-02-26T08:34:49;22.13;;;18.47;;
1416;SDS011;703;51.162;13.574;2024-02-26T08:37:15;22.30;;;18.87;;
1416;SDS011;703;51.162;13.574;2024-02-26T08:39:41;21.97;;;19.63;;
1416;SDS011;703;51.162;13.574;2024-02-26T08:42:07;16.93;;;15.20;;
1416;SDS011;703;51.162;13.574;2024-02-26T08:44:33;20.90;;;14.90;;
1416;SDS011;703;51.162;13.574;2024-02-26T08:46:59;17.00;;;15.40;;
1416;SDS011;703;51.162;13.574;2024-02-26T08:49:25;13.93;;;9.67;;
1416;SDS011;703;51.162;13.574;2024-02-26T08:51:51;10.63;;;9.63;;
1416;SDS011;703;51.162;13.574;2024-02-26T08:54:17;16.27;;;12.97;;
1416;SDS011;703;51.162;13.574;2024-02-26T08:56:43;12.40;;;10.70;;
1416;SDS011;703;51.162;13.574;2024-02-26T08:59:09;15.53;;;10.97;;
1416;SDS011;703;51.162;13.574;2024-02-26T09:01:34;16.30;;;12.40;;
1416;SDS011;703;51.162;13.574;2024-02-26T09:04:00;13.60;;;12.07;;
1416;SDS011;703;51.162;13.574;2024-02-26T09:06:26;17.97;;;12.03;;
1416;SDS011;703;51.162;13.574;2024-02-26T09:08:52;19.37;;;11.37;;
1416;SDS011;703;51.162;13.574;2024-02-26T09:11:18;11.63;;;10.73;;
1416;SDS011;703;51.162;13.574;2024-02-26T09:13:44;24.47;;;11.77;;
1416;SDS011;703;51.162;13.574;2024-02-26T09:16:11;11.37;;;10.33;;
1416;SDS011;703;51.162;13.574;2024-02-26T09:18:37;16.00;;;13.67;;
1416;SDS011;703;51.162;13.574;2024-02-26T09:21:04;16.40;;;9.53;;
1416;SDS011;703;51.162;13.574;2024-02-26T09:23:31;11.30;;;10.00;;
1416;SDS011;703;51.162;13.574;2024-02-26T09:25:57;37.13;;;11.53;;
1416;SDS011;703;51.162;13.574;2024-02-26T09:28:23;15.93;;;10.83;;
1416;SDS011;703;51.162;13.574;2024-02-26T09:30:49;16.97;;;11.40;;
1416;SDS011;703;51.162;13.574;2024-02-26T09:33:16;13.40;;;11.20;;
1416;SDS011;703;51.162;13.574;2024-02-26T09:35:42;11.80;;;10.60;;
1416;SDS011;703;51.162;13.574;2024-02-26T09:38:08;13.00;;;10.23;;
1416;SDS011;703;51.162;13.574;2024-02-26T09:40:34;12.50;;;10.37;;
1416;SDS011;703;51.162;13.574;2024-02-26T09:43:00;11.57;;;10.37;;
1416;SDS011;703;51.162;13.574;2024-02-26T09:45:26;11.10;;;10.07;;
1416;SDS011;703;51.162;13.574;2024-02-26T09:47:53;14.63;;;9.43;;
1416;SDS011;703;51.162;13.574;2024-02-26T09:50:20;12.03;;;10.90;;
1416;SDS011;703;51.162;13.574;2024-02-26T09:52:50;10.47;;;9.47;;
1416;SDS011;703;51.162;13.574;2024-02-26T09:55:18;11.63;;;10.53;;
1416;SDS011;703;51.162;13.574;2024-02-26T09:57:45;11.90;;;10.60;;
1416;SDS011;703;51.162;13.574;2024-02-26T10:00:15;12.27;;;11.00;;
1416;SDS011;703;51.162;13.574;2024-02-26T10:02:44;11.30;;;10.17;;
1416;SDS011;703;51.162;13.574;2024-02-26T10:05:12;13.60;;;12.27;;
1416;SDS011;703;51.162;13.574;2024-02-26T10:07:38;13.00;;;10.53;;
1416;SDS011;703;51.162;13.574;2024-02-26T10:10:04;12.90;;;10.47;;
1416;SDS011;703;51.162;13.574;2024-02-26T10:12:30;9.63;;;8.83;;
1416;SDS011;703;51.162;13.574;2024-02-26T10:14:57;11.47;;;9.77;;
1416;SDS011;703;51.162;13.574;2024-02-26T10:17:23;11.90;;;10.37;;
1416;SDS011;703;51.162;13.574;2024-02-26T10:19:49;8.50;;;7.90;;
1416;SDS011;703;51.162;13.574;2024-02-26T10:22:16;13.03;;;11.17;;
1416;SDS011;703;51.162;13.574;2024-02-26T10:24:42;11.97;;;10.77;;
1416;SDS011;703;51.162;13.574;2024-02-26T10:27:08;12.07;;;10.43;;
1416;SDS011;703;51.162;13.574;2024-02-26T10:29:34;13.83;;;10.30;;
1416;SDS011;703;51.162;13.574;2024-02-26T10:32:01;11.30;;;9.40;;
1416;SDS011;703;51.162;13.574;2024-02-26T10:34:26;10.47;;;9.40;;
1416;SDS011;703;51.162;13.574;2024-02-26T10:36:53;10.40;;;9.40;;
1416;SDS011;703;51.162;13.574;2024-02-26T10:39:19;13.40;;;11.60;;
1416;SDS011;703;51.162;13.574;2024-02-26T10:41:45;13.67;;;11.97;;
1416;SDS011;703;51.162;13.574;2024-02-26T10:44:11;11.50;;;10.50;;
1416;SDS011;703;51.162;13.574;2024-02-26T10:46:40;11.73;;;10.60;;
1416;SDS011;703;51.162;13.574;2024-02-26T10:49:12;12.73;;;11.30;;
1416;SDS011;703;51.162;13.574;2024-02-26T10:51:38;14.80;;;13.47;;
1416;SDS011;703;51.162;13.574;2024-02-26T10:54:05;14.93;;;13.60;;
1416;SDS011;703;51.162;13.574;2024-02-26T10:56:33;13.73;;;12.33;;
1416;SDS011;703;51.162;13.574;2024-02-26T10:59:02;15.97;;;12.40;;
1416;SDS011;703;51.162;13.574;2024-02-26T11:01:29;13.47;;;12.20;;
1416;SDS011;703;51.162;13.574;2024-02-26T11:03:56;11.87;;;10.90;;
1416;SDS011;703;51.162;13.574;2024-02-26T11:06:22;11.33;;;8.80;;
1416;SDS011;703;51.162;13.574;2024-02-26T11:08:48;14.93;;;11.60;;
1416;SDS011;703;51.162;13.574;2024-02-26T11:11:15;26.33;;;14.07;;
1416;SDS011;703;51.162;13.574;2024-02-26T11:13:42;37.60;;;24.57;;
1416;SDS011;703;51.162;13.574;2024-02-26T11:16:10;15.07;;;13.50;;
1416;SDS011;703;51.162;13.574;2024-02-26T11:18:36;18.43;;;15.83;;
1416;SDS011;703;51.162;13.574;2024-02-26T11:21:03;18.13;;;13.30;;
1416;SDS011;703;51.162;13.574;2024-02-26T11:23:30;13.63;;;12.33;;
1416;SDS011;703;51.162;13.574;2024-02-26T11:25:57;20.73;;;13.73;;
1416;SDS011;703;51.162;13.574;2024-02-26T11:28:24;13.23;;;11.90;;
1416;SDS011;703;51.162;13.574;2024-02-26T11:30:51;11.37;;;9.87;;
1416;SDS011;703;51.162;13.574;2024-02-26T11:33:18;13.97;;;12.77;;
1416;SDS011;703;51.162;13.574;2024-02-26T11:35:45;13.43;;;11.50;;
1416;SDS011;703;51.162;13.574;2024-02-26T11:38:19;20.40;;;17.23;;
1416;SDS011;703;51.162;13.574;2024-02-26T11:40:49;12.23;;;11.23;;
1416;SDS011;703;51.162;13.574;2024-02-26T11:43:15;28.40;;;23.33;;
1416;SDS011;703;51.162;13.574;2024-02-26T11:51:03;25.23;;;11.00;;
1416;SDS011;703;51.162;13.574;2024-02-26T11:53:31;11.10;;;10.27;;
1416;SDS011;703;51.162;13.574;2024-02-26T11:58:42;11.10;;;10.00;;
1416;SDS011;703;51.162;13.574;2024-02-26T12:03:54;10.90;;;10.13;;
1416;SDS011;703;51.162;13.574;2024-02-26T12:06:20;11.20;;;10.10;;
1416;SDS011;703;51.162;13.574;2024-02-26T12:08:46;11.53;;;10.73;;
1416;SDS011;703;51.162;13.574;2024-02-26T12:11:15;12.83;;;11.70;;
1416;SDS011;703;51.162;13.574;2024-02-26T12:13:41;13.20;;;11.30;;
1416;SDS011;703;51.162;13.574;2024-02-26T12:16:08;9.07;;;8.33;;
1416;SDS011;703;51.162;13.574;2024-02-26T12:18:34;12.07;;;10.90;;
1416;SDS011;703;51.162;13.574;2024-02-26T12:21:00;12.40;;;11.30;;
1416;SDS011;703;51.162;13.574;2024-02-26T12:23:26;11.40;;;10.40;;
1416;SDS011;703;51.162;13.574;2024-02-26T12:25:53;16.17;;;13.07;;
1416;SDS011;703;51.162;13.574;2024-02-26T12:28:19;12.13;;;11.03;;
1416;SDS011;703;51.162;13.574;2024-02-26T12:30:45;11.90;;;10.67;;
1416;SDS011;703;51.162;13.574;2024-02-26T12:33:11;11.97;;;10.93;;
1416;SDS011;703;51.162;13.574;2024-02-26T12:35:37;10.73;;;9.93;;
1416;SDS011;703;51.162;13.574;2024-02-26T12:38:03;13.30;;;12.30;;
1416;SDS011;703;51.162;13.574;2024-02-26T12:40:29;10.43;;;9.67;;
1416;SDS011;703;51.162;13.574;2024-02-26T12:42:55;12.70;;;11.30;;
1416;SDS011;703;51.162;13.574;2024-02-26T12:45:21;12.60;;;11.10;;
1416;SDS011;703;51.162;13.574;2024-02-26T12:47:47;11.37;;;10.27;;
1416;SDS011;703;51.162;13.574;2024-02-26T12:50:16;10.20;;;9.50;;
1416;SDS011;703;51.162;13.574;2024-02-26T12:52:43;11.93;;;10.83;;
1416;SDS011;703;51.162;13.574;2024-02-26T12:55:10;13.13;;;11.43;;
1416;SDS011;703;51.162;13.574;2024-02-26T12:57:37;11.43;;;10.60;;
1416;SDS011;703;51.162;13.574;2024-02-26T13:00:07;11.40;;;10.37;;
1416;SDS011;703;51.162;13.574;2024-02-26T13:02:36;11.60;;;10.60;;
1416;SDS011;703;51.162;13.574;2024-02-26T13:05:03;11.80;;;10.80;;
1416;SDS011;703;51.162;13.574;2024-02-26T13:07:29;11.87;;;10.17;;
1416;SDS011;703;51.162;13.574;2024-02-26T13:09:56;11.73;;;10.57;;
1416;SDS011;703;51.162;13.574;2024-02-26T13:12:22;12.27;;;11.13;;
1416;SDS011;703;51.162;13.574;2024-02-26T13:14:57;16.90;;;9.90;;
1416;SDS011;703;51.162;13.574;2024-02-26T13:17:23;11.33;;;10.23;;
1416;SDS011;703;51.162;13.574;2024-02-26T13:19:52;16.23;;;11.40;;
1416;SDS011;703;51.162;13.574;2024-02-26T13:22:20;13.30;;;10.10;;
1416;SDS011;703;51.162;13.574;2024-02-26T13:24:52;10.70;;;9.77;;
1416;SDS011;703;51.162;13.574;2024-02-26T13:27:22;9.93;;;9.13;;
1416;SDS011;703;51.162;13.574;2024-02-26T13:29:48;10.93;;;8.60;;
1416;SDS011;703;51.162;13.574;2024-02-26T13:32:14;10.87;;;9.37;;
1416;SDS011;703;51.162;13.574;2024-02-26T13:34:40;10.63;;;9.63;;
1416;SDS011;703;51.162;13.574;2024-02-26T13:37:06;11.40;;;10.20;;
1416;SDS011;703;51.162;13.574;2024-02-26T13:39:34;9.60;;;8.70;;
1416;SDS011;703;51.162;13.574;2024-02-26T13:42:00;10.43;;;9.50;;
1416;SDS011;703;51.162;13.574;2024-02-26T13:44:25;9.20;;;8.50;;
1416;SDS011;703;51.162;13.574;2024-02-26T13:46:51;10.87;;;9.87;;
1416;SDS011;703;51.162;13.574;2024-02-26T13:49:17;9.87;;;9.07;;
1416;SDS011;703;51.162;13.574;2024-02-26T13:51:43;11.10;;;9.20;;
1416;SDS011;703;51.162;13.574;2024-02-26T13:54:09;10.60;;;9.90;;
1416;SDS011;703;51.162;13.574;2024-02-26T13:56:35;10.13;;;9.23;;
1416;SDS011;703;51.162;13.574;2024-02-26T13:59:01;10.73;;;9.73;;
1416;SDS011;703;51.162;13.574;2024-02-26T14:01:27;11.97;;;10.80;;
1416;SDS011;703;51.162;13.574;2024-02-26T14:03:53;9.70;;;8.90;;
1416;SDS011;703;51.162;13.574;2024-02-26T14:06:22;10.77;;;9.43;;
1416;SDS011;703;51.162;13.574;2024-02-26T14:08:48;11.37;;;10.20;;
1416;SDS011;703;51.162;13.574;2024-02-26T14:11:14;9.23;;;8.53;;
1416;SDS011;703;51.162;13.574;2024-02-26T14:13:40;11.03;;;10.10;;
1416;SDS011;703;51.162;13.574;2024-02-26T14:16:06;10.47;;;9.50;;
1416;SDS011;703;51.162;13.574;2024-02-26T14:18:32;10.57;;;8.60;;
1416;SDS011;703;51.162;13.574;2024-02-26T14:20:58;10.33;;;9.30;;
1416;SDS011;703;51.162;13.574;2024-02-26T14:23:25;11.57;;;10.57;;
1416;SDS011;703;51.162;13.574;2024-02-26T14:25:50;10.37;;;9.50;;
1416;SDS011;703;51.162;13.574;2024-02-26T14:28:16;11.77;;;10.77;;
1416;SDS011;703;51.162;13.574;2024-02-26T14:30:42;11.47;;;10.40;;
1416;SDS011;703;51.162;13.574;2024-02-26T14:33:09;13.80;;;11.70;;
1416;SDS011;703;51.162;13.574;2024-02-26T14:35:34;11.67;;;10.43;;
1416;SDS011;703;51.162;13.574;2024-02-26T14:38:00;15.13;;;11.40;;
1416;SDS011;703;51.162;13.574;2024-02-26T14:40:26;17.33;;;11.20;;
1416;SDS011;703;51.162;13.574;2024-02-26T14:42:52;11.93;;;10.90;;
1416;SDS011;703;51.162;13.574;2024-02-26T14:45:18;11.83;;;11.00;;
1416;SDS011;703;51.162;13.574;2024-02-26T14:47:44;11.40;;;10.47;;
1416;SDS011;703;51.162;13.574;2024-02-26T14:50:10;13.20;;;11.80;;
1416;SDS011;703;51.162;13.574;2024-02-26T14:52:36;27.73;;;11.53;;
1416;SDS011;703;51.162;13.574;2024-02-26T14:55:02;17.63;;;11.53;;